Time;durP1;ratioP1;P1;durP2;ratioP2;P2;SDS_P1;SDS_P2;PMS_P1;PMS_P2;Temp;Humidity;BMP_temperature;BMP_pressure;BME280_temperature;BME280_humidity;BME280_pressure;Samples;Min_cycle;Max_cycle;Signal;HPM_P1;HPM_P2
2022/09/26 00:02:22;;;;;;;17.33;15.27;;;16.30;99.90;;;;;;4981878;28;20453;-95
2022/09/26 00:04:49;;;;;;;23.93;16.40;;;16.30;99.90;;;;;;4978167;28;20520;-94
2022/09/26 00:07:14;;;;;;;23.10;15.60;;;16.30;99.90;;;;;;4985110;28;20563;-96
2022/09/26 00:09:40;;;;;;;21.70;16.10;;;16.30;99.90;;;;;;4990110;28;20433;-95
2022/09/26 00:12:06;;;;;;;24.87;17.07;;;16.20;99.90;;;;;;4995400;28;20259;-95
2022/09/26 00:14:32;;;;;;;32.40;22.03;;;16.20;99.90;;;;;;4978073;28;20195;-96
2022/09/26 00:16:59;;;;;;;22.47;17.53;;;16.20;99.90;;;;;;4978027;28;20498;-96
2022/09/26 00:19:25;;;;;;;22.07;17.07;;;16.20;99.90;;;;;;5002718;28;20508;-93
2022/09/26 00:21:50;;;;;;;20.90;16.23;;;16.20;99.90;;;;;;4995507;28;20482;-94
2022/09/26 00:24:16;;;;;;;21.20;17.90;;;16.20;99.90;;;;;;4977658;28;20437;-96
2022/09/26 00:26:42;;;;;;;24.33;18.17;;;16.20;99.90;;;;;;4977917;28;20252;-93
2022/09/26 00:29:10;;;;;;;18.07;15.13;;;16.20;99.90;;;;;;4979208;28;20416;-96
2022/09/26 00:31:42;;;;;;;20.93;15.77;;;16.20;99.90;;;;;;4977790;28;20778;-94
2022/09/26 00:34:13;;;;;;;22.13;17.00;;;16.20;99.90;;;;;;4977905;28;20504;-94
2022/09/26 00:36:39;;;;;;;22.77;15.87;;;16.20;99.90;;;;;;4978063;28;20426;-94
2022/09/26 00:39:09;;;;;;;21.90;15.73;;;16.20;99.90;;;;;;4978255;28;20456;-96
2022/09/26 00:41:36;;;;;;;21.60;16.87;;;16.10;99.90;;;;;;5011321;28;20226;-94
2022/09/26 00:44:22;;;;;;;20.43;17.20;;;16.10;99.90;;;;;;4980207;28;20433;-94
2022/09/26 00:46:48;;;;;;;22.17;16.63;;;16.10;99.90;;;;;;4980962;28;20468;-95
2022/09/26 00:49:23;;;;;;;19.73;16.60;;;16.00;99.90;;;;;;4981005;28;20946;-94
2022/09/26 00:52:29;;;;;;;23.37;18.10;;;16.00;99.90;;;;;;4981356;28;20278;-95
2022/09/26 00:55:00;;;;;;;18.50;15.83;;;16.00;99.90;;;;;;4942934;29;20440;-96
2022/09/26 00:57:35;;;;;;;22.77;16.97;;;16.00;99.90;;;;;;4938552;29;20531;-94
2022/09/26 01:00:06;;;;;;;23.90;18.30;;;16.00;99.90;;;;;;4972090;28;20556;-96
2022/09/26 01:02:32;;;;;;;18.80;15.60;;;15.90;99.90;;;;;;4998793;28;20421;-95
2022/09/26 01:04:58;;;;;;;23.50;17.43;;;15.90;99.90;;;;;;4980639;28;20515;-95
2022/09/26 01:07:26;;;;;;;19.87;16.87;;;15.90;99.90;;;;;;4981013;28;20184;-96
2022/09/26 01:09:52;;;;;;;21.87;17.23;;;15.90;99.90;;;;;;4980621;28;20477;-96
2022/09/26 01:12:19;;;;;;;20.67;16.87;;;16.00;99.90;;;;;;4980888;28;20465;-94
2022/09/26 01:14:47;;;;;;;19.53;16.63;;;16.00;99.90;;;;;;4980704;28;20212;-93
2022/09/26 01:17:14;;;;;;;17.87;15.07;;;16.00;99.90;;;;;;4985855;28;20429;-95
2022/09/26 01:20:26;;;;;;;19.20;14.57;;;16.00;99.90;;;;;;5008015;28;20433;-94
2022/09/26 01:22:58;;;;;;;19.90;15.13;;;16.00;99.90;;;;;;4954985;28;20441;-95
2022/09/26 01:25:45;;;;;;;17.10;14.37;;;16.00;99.90;;;;;;4980428;28;20985;-95
2022/09/26 01:28:23;;;;;;;16.30;13.40;;;16.00;99.90;;;;;;4980638;28;20421;-94
2022/09/26 01:31:12;;;;;;;19.53;12.90;;;16.00;99.90;;;;;;4984951;28;20455;-93
2022/09/26 01:33:41;;;;;;;15.67;13.27;;;16.00;99.90;;;;;;4987583;28;20425;-94
2022/09/26 01:36:27;;;;;;;17.60;13.10;;;16.00;99.90;;;;;;4980785;28;20430;-94
2022/09/26 01:39:02;;;;;;;17.00;12.87;;;16.00;99.90;;;;;;4979949;28;20421;-93
2022/09/26 01:41:57;;;;;;;14.60;12.50;;;16.00;99.90;;;;;;4980234;28;20626;-94
2022/09/26 01:44:55;;;;;;;13.90;12.50;;;16.10;99.90;;;;;;4980237;28;20524;-96
2022/09/26 01:47:40;;;;;;;17.17;13.50;;;16.10;99.90;;;;;;4985308;28;20441;-95
2022/09/26 01:50:25;;;;;;;15.23;12.70;;;16.10;99.90;;;;;;4979945;28;20446;-94
2022/09/26 01:52:56;;;;;;;16.87;12.97;;;16.20;99.90;;;;;;4979867;28;20859;-96
2022/09/26 01:55:46;;;;;;;16.17;12.50;;;16.20;99.90;;;;;;4979287;28;20532;-94
2022/09/26 01:58:18;;;;;;;15.40;12.40;;;16.20;99.90;;;;;;4980124;28;20965;-94
2022/09/26 02:00:46;;;;;;;14.33;12.73;;;16.20;99.90;;;;;;4979914;28;20472;-96
2022/09/26 02:03:19;;;;;;;14.00;11.73;;;16.30;99.90;;;;;;4982618;28;20420;-94
2022/09/26 02:05:51;;;;;;;14.90;11.63;;;16.30;99.90;;;;;;5003247;28;21203;-94
2022/09/26 02:08:25;;;;;;;14.33;12.83;;;16.30;99.90;;;;;;4980198;28;20405;-95
2022/09/26 02:11:00;;;;;;;18.27;12.10;;;16.40;99.90;;;;;;4979811;28;20911;-96
2022/09/26 02:13:33;;;;;;;13.17;11.30;;;16.40;99.90;;;;;;4979547;28;20782;-95
2022/09/26 02:16:19;;;;;;;15.00;12.30;;;16.40;99.90;;;;;;4996836;28;20481;-95
2022/09/26 02:18:52;;;;;;;13.60;11.20;;;16.40;99.90;;;;;;4990935;28;20422;-94
2022/09/26 02:21:20;;;;;;;13.50;11.20;;;16.40;99.90;;;;;;4982793;28;20481;-93
2022/09/26 02:23:52;;;;;;;13.87;11.50;;;16.50;99.90;;;;;;5002442;28;20409;-94
2022/09/26 02:26:18;;;;;;;12.83;10.67;;;16.50;99.90;;;;;;4979504;28;20478;-94
2022/09/26 02:28:44;;;;;;;14.03;11.97;;;16.50;99.90;;;;;;4979122;28;20438;-94
2022/09/26 02:31:14;;;;;;;12.50;10.83;;;16.50;99.90;;;;;;4996809;28;20488;-94
2022/09/26 02:33:40;;;;;;;12.17;10.60;;;16.50;99.90;;;;;;4979958;28;20402;-95
2022/09/26 02:36:09;;;;;;;14.20;10.27;;;16.50;99.90;;;;;;4996307;28;20560;-95
2022/09/26 02:38:36;;;;;;;12.10;10.07;;;16.50;99.90;;;;;;4980486;28;20417;-93
2022/09/26 02:41:16;;;;;;;15.73;10.97;;;16.50;99.90;;;;;;4979013;28;20528;-95
2022/09/26 02:43:55;;;;;;;14.43;10.63;;;16.50;99.90;;;;;;4979553;28;20413;-96
2022/09/26 02:46:44;;;;;;;13.17;11.17;;;16.50;99.90;;;;;;4979224;28;20472;-94
2022/09/26 02:49:31;;;;;;;13.97;11.03;;;16.60;99.90;;;;;;4979299;28;20508;-96
2022/09/26 02:52:26;;;;;;;16.40;11.13;;;16.60;99.90;;;;;;4979533;28;20433;-94
2022/09/26 02:55:03;;;;;;;12.97;11.40;;;16.60;99.90;;;;;;4979113;28;20499;-96
2022/09/26 02:57:51;;;;;;;25.63;19.47;;;16.60;99.90;;;;;;4980108;28;20465;-94
2022/09/26 03:00:33;;;;;;;15.10;12.60;;;16.70;99.90;;;;;;4980463;28;20992;-94
2022/09/26 03:03:08;;;;;;;12.07;10.33;;;16.70;99.90;;;;;;4987029;28;20418;-95
2022/09/26 03:05:37;;;;;;;14.37;11.30;;;16.70;99.90;;;;;;4990043;28;20453;-94
2022/09/26 03:08:16;;;;;;;15.73;10.80;;;16.70;99.90;;;;;;5000574;28;20410;-94
2022/09/26 03:10:45;;;;;;;12.53;11.07;;;16.70;99.90;;;;;;4990134;28;20499;-95
2022/09/26 03:13:13;;;;;;;11.63;9.83;;;16.70;99.90;;;;;;4996280;28;20426;-95
2022/09/26 03:15:44;;;;;;;16.23;13.33;;;16.70;99.90;;;;;;4979053;28;20588;-94
2022/09/26 03:18:13;;;;;;;12.70;11.27;;;16.70;99.90;;;;;;4980594;28;20572;-93
2022/09/26 03:20:40;;;;;;;13.17;11.03;;;16.70;99.90;;;;;;4996323;28;21041;-94
2022/09/26 03:23:05;;;;;;;11.80;10.57;;;16.70;99.90;;;;;;4996009;28;20772;-95
2022/09/26 03:25:32;;;;;;;12.90;10.77;;;16.70;99.90;;;;;;4978978;28;20447;-95
2022/09/26 03:28:01;;;;;;;13.90;11.67;;;16.70;99.90;;;;;;4979211;28;20176;-95
2022/09/26 03:30:28;;;;;;;12.70;10.73;;;16.70;99.90;;;;;;4979367;28;20441;-94
2022/09/26 03:32:54;;;;;;;13.80;10.10;;;16.70;99.90;;;;;;4979003;28;20504;-95
2022/09/26 03:35:20;;;;;;;12.03;9.23;;;16.70;99.90;;;;;;4979464;28;20441;-95
2022/09/26 03:37:47;;;;;;;11.23;9.80;;;16.70;99.90;;;;;;4979366;28;20433;-93
2022/09/26 03:40:13;;;;;;;12.90;10.30;;;16.70;99.90;;;;;;4976047;28;20486;-95
2022/09/26 03:42:39;;;;;;;14.57;10.10;;;16.70;99.90;;;;;;4975281;28;20437;-95
2022/09/26 03:45:09;;;;;;;15.57;10.67;;;16.70;99.90;;;;;;4975904;28;20438;-96
2022/09/26 03:47:36;;;;;;;11.33;10.13;;;16.70;99.90;;;;;;4975076;28;20426;-95
2022/09/26 03:50:03;;;;;;;11.10;9.90;;;16.70;99.90;;;;;;4974859;28;20529;-94
2022/09/26 03:52:29;;;;;;;13.37;10.90;;;16.70;99.90;;;;;;4976756;28;20480;-95
2022/09/26 03:54:55;;;;;;;16.10;12.27;;;16.70;99.90;;;;;;4976800;28;20446;-96
2022/09/26 03:57:20;;;;;;;17.67;13.40;;;16.70;99.90;;;;;;4982181;28;20441;-96
2022/09/26 03:59:46;;;;;;;16.00;13.17;;;16.80;99.90;;;;;;4976068;28;20193;-96
2022/09/26 04:02:12;;;;;;;15.10;11.00;;;16.80;99.90;;;;;;4975282;28;20196;-96
2022/09/26 04:04:38;;;;;;;14.97;10.97;;;16.80;99.90;;;;;;4974806;28;20783;-96
2022/09/26 04:07:04;;;;;;;13.80;11.33;;;16.80;99.90;;;;;;4974844;28;20434;-94
2022/09/26 04:09:30;;;;;;;14.00;10.70;;;16.80;99.90;;;;;;4974684;28;20196;-94
2022/09/26 04:11:55;;;;;;;17.37;11.37;;;16.80;99.90;;;;;;4982189;28;20859;-94
2022/09/26 04:14:21;;;;;;;14.80;11.37;;;16.90;99.90;;;;;;4974891;28;20200;-95
2022/09/26 04:16:47;;;;;;;16.23;12.67;;;16.90;99.90;;;;;;4976260;28;20200;-95
2022/09/26 04:19:13;;;;;;;15.00;13.60;;;16.90;99.90;;;;;;4977550;28;20201;-94
2022/09/26 04:21:40;;;;;;;14.70;11.90;;;16.90;99.90;;;;;;4980186;28;20358;-96
2022/09/26 04:24:13;;;;;;;12.93;11.53;;;17.00;99.90;;;;;;4979192;28;21054;-95
2022/09/26 04:26:41;;;;;;;12.73;11.07;;;16.90;99.90;;;;;;4968928;28;20431;-96
2022/09/26 04:29:07;;;;;;;11.97;10.67;;;17.00;99.90;;;;;;4967466;28;20453;-96
2022/09/26 04:31:36;;;;;;;16.33;12.60;;;17.00;99.90;;;;;;4966193;28;20969;-94
2022/09/26 04:34:05;;;;;;;14.73;12.20;;;17.00;99.90;;;;;;4978745;28;20204;-94
2022/09/26 04:36:31;;;;;;;13.23;11.77;;;17.00;99.90;;;;;;4978976;28;20417;-94
2022/09/26 04:38:58;;;;;;;14.10;11.50;;;17.00;99.90;;;;;;4942955;28;20825;-96
2022/09/26 04:41:24;;;;;;;12.43;10.67;;;17.00;99.90;;;;;;4972420;28;20520;-96
2022/09/26 04:43:52;;;;;;;18.07;12.00;;;17.00;99.90;;;;;;4961587;28;20466;-95
2022/09/26 04:46:22;;;;;;;15.83;11.50;;;17.00;99.90;;;;;;4979624;28;20528;-94
2022/09/26 04:48:52;;;;;;;13.37;11.63;;;17.00;99.90;;;;;;4978787;28;20432;-94
2022/09/26 04:51:19;;;;;;;16.17;13.50;;;17.00;99.90;;;;;;4977535;28;20438;-95
2022/09/26 04:53:45;;;;;;;14.23;12.50;;;17.00;99.90;;;;;;4977889;28;20464;-95
2022/09/26 04:56:13;;;;;;;16.03;12.37;;;17.00;99.90;;;;;;4977860;28;20501;-96
2022/09/26 04:58:43;;;;;;;16.17;13.13;;;17.00;99.90;;;;;;4972743;28;20788;-95
2022/09/26 05:01:12;;;;;;;16.43;11.50;;;17.00;99.90;;;;;;4968507;28;20970;-94
2022/09/26 05:03:38;;;;;;;17.80;11.50;;;17.00;99.90;;;;;;4960928;28;20501;-95
2022/09/26 05:06:06;;;;;;;12.57;11.27;;;17.00;99.90;;;;;;4980463;28;20493;-96
2022/09/26 05:08:32;;;;;;;16.13;11.10;;;17.00;99.90;;;;;;4980572;28;20426;-95
2022/09/26 05:10:58;;;;;;;15.17;11.93;;;16.90;99.90;;;;;;4980356;28;20565;-95
2022/09/26 05:13:25;;;;;;;12.13;10.93;;;16.90;99.90;;;;;;4981093;28;20419;-93
2022/09/26 05:15:54;;;;;;;14.47;11.10;;;16.90;99.90;;;;;;4967557;28;20458;-95
2022/09/26 05:18:23;;;;;;;15.60;11.00;;;16.90;99.90;;;;;;4967274;28;20523;-96
2022/09/26 05:20:49;;;;;;;13.37;11.53;;;16.90;99.90;;;;;;4978615;28;20494;-95
2022/09/26 05:26:21;;;;;;;13.77;11.93;;;16.90;99.90;;;;;;4942637;28;20454;-96
2022/09/26 05:28:55;;;;;;;12.73;11.43;;;16.90;99.90;;;;;;4966454;28;20430;-94
2022/09/26 05:31:27;;;;;;;16.20;11.63;;;16.90;99.90;;;;;;4962183;28;20444;-94
2022/09/26 05:33:56;;;;;;;15.03;12.57;;;16.90;99.90;;;;;;4954930;28;20430;-96
2022/09/26 05:36:23;;;;;;;15.70;12.20;;;16.80;99.90;;;;;;4964182;28;20891;-94
2022/09/26 05:38:49;;;;;;;15.33;13.50;;;16.80;99.90;;;;;;4977660;28;20453;-94
2022/09/26 05:41:15;;;;;;;25.00;17.93;;;16.80;99.90;;;;;;4999009;28;20517;-93
2022/09/26 05:43:42;;;;;;;36.13;26.57;;;16.80;99.90;;;;;;4977857;28;20472;-95
2022/09/26 05:46:10;;;;;;;17.13;13.60;;;16.70;99.90;;;;;;4978105;28;20445;-95
2022/09/26 05:48:37;;;;;;;18.07;14.73;;;16.70;99.90;;;;;;4973188;28;20446;-94
2022/09/26 05:51:07;;;;;;;17.63;14.50;;;16.70;99.90;;;;;;4972001;28;20457;-96
2022/09/26 05:53:33;;;;;;;27.47;15.77;;;16.70;99.90;;;;;;4987970;28;20465;-95
2022/09/26 05:55:59;;;;;;;17.20;13.70;;;16.60;99.90;;;;;;4977982;28;20864;-96
2022/09/26 05:58:33;;;;;;;17.83;13.50;;;16.60;99.90;;;;;;4972203;28;20216;-95
2022/09/26 06:01:05;;;;;;;20.70;15.70;;;16.60;99.90;;;;;;4971623;28;20237;-94
2022/09/26 06:03:33;;;;;;;15.60;13.17;;;16.60;99.90;;;;;;4977542;28;20429;-96
2022/09/26 06:06:13;;;;;;;18.20;14.07;;;16.60;99.90;;;;;;4978525;28;20465;-94
2022/09/26 06:08:40;;;;;;;15.83;14.07;;;16.60;99.90;;;;;;4988460;28;20421;-94
2022/09/26 06:11:12;;;;;;;22.33;14.70;;;16.60;99.90;;;;;;4977907;28;20891;-95
2022/09/26 06:13:39;;;;;;;19.37;15.40;;;16.60;99.90;;;;;;4981063;28;20457;-95
2022/09/26 06:16:07;;;;;;;20.53;15.67;;;16.60;99.90;;;;;;4986266;28;20471;-96
2022/09/26 06:18:34;;;;;;;21.57;16.67;;;16.60;99.90;;;;;;4968581;28;20430;-94
2022/09/26 06:21:11;;;;;;;20.03;17.40;;;16.50;99.90;;;;;;4988919;28;20516;-96
2022/09/26 06:23:37;;;;;;;22.47;17.40;;;16.50;99.90;;;;;;4981612;28;20420;-96
2022/09/26 06:26:07;;;;;;;21.27;15.83;;;16.50;99.90;;;;;;5006090;28;20445;-95
2022/09/26 06:28:33;;;;;;;20.43;15.97;;;16.50;99.90;;;;;;4977676;28;20433;-95
2022/09/26 06:30:59;;;;;;;23.43;16.17;;;16.50;99.90;;;;;;4992916;28;20449;-95
2022/09/26 06:33:25;;;;;;;24.30;16.30;;;16.40;99.90;;;;;;4976759;28;20923;-94
2022/09/26 06:36:02;;;;;;;21.73;16.87;;;16.40;99.90;;;;;;4976453;28;20293;-96
2022/09/26 06:38:28;;;;;;;19.83;14.80;;;16.40;99.90;;;;;;4978282;28;20184;-94
2022/09/26 06:40:54;;;;;;;22.20;15.20;;;16.40;99.90;;;;;;4964649;28;20480;-96
2022/09/26 06:43:20;;;;;;;20.80;16.20;;;16.40;99.90;;;;;;4976431;28;20436;-96
2022/09/26 06:45:47;;;;;;;21.70;17.00;;;16.40;99.90;;;;;;4990964;28;20211;-94
2022/09/26 06:48:16;;;;;;;24.83;17.87;;;16.40;99.90;;;;;;4971842;28;20979;-96
2022/09/26 06:50:42;;;;;;;27.37;21.00;;;16.40;99.90;;;;;;4970189;28;21024;-96
2022/09/26 06:53:08;;;;;;;30.93;23.07;;;16.50;99.90;;;;;;4962221;28;20445;-95
2022/09/26 06:55:34;;;;;;;37.00;25.13;;;16.50;99.90;;;;;;4976764;28;20506;-94
2022/09/26 06:57:59;;;;;;;21.90;18.87;;;16.50;99.90;;;;;;4970424;28;20188;-94
2022/09/26 07:00:25;;;;;;;24.37;18.17;;;16.50;99.90;;;;;;4959037;28;20696;-96
2022/09/26 07:02:53;;;;;;;23.93;16.87;;;16.60;99.90;;;;;;4960517;28;20188;-96
2022/09/26 07:05:20;;;;;;;25.10;17.97;;;16.60;99.90;;;;;;4953189;28;20473;-95
2022/09/26 07:07:47;;;;;;;79.23;40.03;;;16.60;99.90;;;;;;4977031;28;20965;-95
2022/09/26 07:10:15;;;;;;;27.63;19.50;;;16.60;99.90;;;;;;4968648;28;20489;-94
2022/09/26 07:12:42;;;;;;;26.20;17.80;;;16.70;99.90;;;;;;4983922;28;20424;-94
2022/09/26 07:15:09;;;;;;;30.37;20.00;;;16.70;99.90;;;;;;4977951;28;20676;-95
2022/09/26 07:17:35;;;;;;;20.07;13.77;;;16.70;99.90;;;;;;4975417;28;20433;-96
2022/09/26 07:20:01;;;;;;;29.33;22.13;;;16.60;99.90;;;;;;4994801;28;20492;-95
2022/09/26 07:22:27;;;;;;;24.87;18.60;;;16.60;99.90;;;;;;4977169;28;20218;-94
2022/09/26 07:24:53;;;;;;;32.37;22.50;;;16.50;99.90;;;;;;4994124;28;20553;-94
2022/09/26 07:27:18;;;;;;;28.53;21.40;;;16.50;99.90;;;;;;4976182;28;20216;-96
2022/09/26 07:29:46;;;;;;;24.23;17.90;;;16.50;99.90;;;;;;4975627;28;20266;-95
2022/09/26 07:32:12;;;;;;;25.90;18.87;;;16.50;99.90;;;;;;4975917;28;20274;-95
2022/09/26 07:34:38;;;;;;;24.50;18.20;;;16.50;99.90;;;;;;4985165;28;20445;-94
2022/09/26 07:37:04;;;;;;;21.07;17.47;;;16.50;99.90;;;;;;4989254;28;20442;-93
2022/09/26 07:39:29;;;;;;;22.40;16.90;;;16.50;99.90;;;;;;5002511;28;20468;-95
2022/09/26 07:41:55;;;;;;;22.27;16.70;;;16.50;99.90;;;;;;4992476;28;20697;-94
2022/09/26 07:44:21;;;;;;;35.80;27.33;;;16.50;99.90;;;;;;4974056;28;20230;-94
2022/09/26 07:52:16;;;;;;;40.73;27.33;;;16.60;99.90;;;;;;4991786;28;20440;-95
2022/09/26 07:54:41;;;;;;;22.53;17.83;;;16.60;99.90;;;;;;4981173;28;20437;-95
2022/09/26 07:57:07;;;;;;;21.63;17.13;;;16.60;99.90;;;;;;4982552;28;20789;-96
2022/09/26 07:59:34;;;;;;;30.70;21.47;;;16.60;99.90;;;;;;4975962;28;20207;-95
2022/09/26 08:02:01;;;;;;;22.53;17.50;;;16.70;99.90;;;;;;4997861;28;20661;-96
2022/09/26 08:04:27;;;;;;;23.13;16.80;;;16.70;99.90;;;;;;4970177;28;20461;-94
2022/09/26 08:06:55;;;;;;;25.70;19.30;;;16.80;99.90;;;;;;4996183;28;20437;-95
2022/09/26 08:09:21;;;;;;;29.20;22.80;;;16.90;99.90;;;;;;4975344;28;20507;-96
2022/09/26 08:11:46;;;;;;;24.13;18.60;;;17.00;99.90;;;;;;4978729;28;20449;-95
2022/09/26 08:14:13;;;;;;;23.63;17.97;;;17.10;99.90;;;;;;4987648;28;20449;-95
2022/09/26 08:16:40;;;;;;;21.27;17.27;;;17.10;99.90;;;;;;4979556;28;20194;-95
2022/09/26 08:19:07;;;;;;;21.13;16.60;;;17.20;99.90;;;;;;4977895;28;20449;-95
2022/09/26 08:21:33;;;;;;;22.07;16.50;;;17.20;99.90;;;;;;4984237;28;20483;-95
2022/09/26 08:24:00;;;;;;;19.90;16.47;;;17.20;99.90;;;;;;4998537;28;20460;-94
2022/09/26 08:26:25;;;;;;;21.00;16.40;;;17.20;99.90;;;;;;5001399;28;20490;-95
2022/09/26 08:28:52;;;;;;;24.37;18.90;;;17.10;99.90;;;;;;4980122;28;20480;-95
2022/09/26 08:31:18;;;;;;;26.70;17.27;;;17.10;99.90;;;;;;4984033;28;20276;-95
2022/09/26 08:33:44;;;;;;;31.27;21.60;;;17.20;99.90;;;;;;4976466;28;20531;-95
2022/09/26 08:36:12;;;;;;;24.60;19.30;;;17.20;99.90;;;;;;4991104;28;20467;-95
2022/09/26 08:38:38;;;;;;;36.63;27.50;;;17.20;99.90;;;;;;4997275;28;20420;-95
2022/09/26 08:41:31;;;;;;;22.07;17.83;;;17.20;99.90;;;;;;5004689;28;20485;-96
2022/09/26 08:44:21;;;;;;;21.67;17.30;;;17.20;99.90;;;;;;4979987;28;20441;-95
2022/09/26 08:47:20;;;;;;;23.07;16.43;;;17.30;99.90;;;;;;4975445;28;20678;-95
2022/09/26 08:50:23;;;;;;;19.33;15.30;;;17.30;99.90;;;;;;4979750;28;20453;-94
2022/09/26 08:52:59;;;;;;;19.43;15.43;;;17.30;99.90;;;;;;4992259;28;20445;-95
2022/09/26 08:55:30;;;;;;;21.33;16.80;;;17.30;99.90;;;;;;4980062;28;20826;-95
2022/09/26 08:58:11;;;;;;;19.57;16.13;;;17.40;99.90;;;;;;4997535;28;20632;-96
2022/09/26 09:00:37;;;;;;;20.03;15.50;;;17.40;99.90;;;;;;4979136;28;20953;-95
2022/09/26 09:03:09;;;;;;;21.40;15.90;;;17.40;99.90;;;;;;4987327;28;20457;-96
2022/09/26 09:05:42;;;;;;;24.40;17.20;;;17.40;99.90;;;;;;4976313;28;20311;-96
2022/09/26 09:08:21;;;;;;;21.07;16.97;;;17.50;99.90;;;;;;4974338;28;20484;-94
2022/09/26 09:10:49;;;;;;;25.70;18.10;;;17.50;99.90;;;;;;4975264;28;20985;-95
2022/09/26 09:13:33;;;;;;;18.93;16.23;;;17.50;99.90;;;;;;4971576;28;20438;-96
2022/09/26 09:15:59;;;;;;;18.10;15.00;;;17.60;99.90;;;;;;4983443;28;20877;-96
2022/09/26 09:18:29;;;;;;;20.20;15.47;;;17.60;99.90;;;;;;4975162;28;20434;-96
2022/09/26 09:21:21;;;;;;;20.97;15.77;;;17.60;99.90;;;;;;4978840;28;20662;-95
2022/09/26 09:24:25;;;;;;;19.90;15.60;;;17.70;99.90;;;;;;4978185;28;20454;-96
2022/09/26 09:27:13;;;;;;;20.67;15.60;;;17.70;99.90;;;;;;4962769;28;20444;-95
2022/09/26 09:29:49;;;;;;;19.23;16.50;;;17.80;99.90;;;;;;4964721;28;20523;-95
2022/09/26 09:32:21;;;;;;;21.57;15.27;;;17.80;99.90;;;;;;4992783;28;20946;-96
2022/09/26 09:34:48;;;;;;;17.97;15.60;;;17.80;99.90;;;;;;4978245;28;20468;-95
2022/09/26 09:37:30;;;;;;;19.90;16.20;;;17.90;99.90;;;;;;4980062;28;20511;-94
2022/09/26 09:39:56;;;;;;;42.63;32.77;;;17.90;99.90;;;;;;4992875;28;20488;-94
2022/09/26 09:42:34;;;;;;;21.37;16.10;;;17.90;99.90;;;;;;4991690;28;20487;-95
2022/09/26 09:45:05;;;;;;;22.70;18.30;;;18.00;99.90;;;;;;4995325;28;20200;-96
2022/09/26 09:47:38;;;;;;;16.87;14.93;;;18.00;99.90;;;;;;4971621;28;20495;-95
2022/09/26 09:50:14;;;;;;;17.83;14.47;;;18.00;99.90;;;;;;4975078;28;20453;-96
2022/09/26 09:53:14;;;;;;;16.87;14.57;;;18.10;99.90;;;;;;4976726;28;20448;-96
2022/09/26 09:56:10;;;;;;;17.37;14.10;;;18.10;99.90;;;;;;4948920;28;20488;-95
2022/09/26 09:58:57;;;;;;;20.77;16.70;;;18.10;99.90;;;;;;4974548;28;20438;-96
2022/09/26 10:01:32;;;;;;;18.97;16.70;;;18.20;99.90;;;;;;4976600;28;20510;-96
2022/09/26 10:04:05;;;;;;;17.63;14.00;;;18.20;99.90;;;;;;4978468;28;20935;-96
2022/09/26 10:06:31;;;;;;;20.13;18.00;;;18.20;99.90;;;;;;4977594;28;20536;-94
2022/09/26 10:09:01;;;;;;;18.87;14.57;;;18.20;99.90;;;;;;4997881;28;20494;-94
2022/09/26 10:11:41;;;;;;;20.10;16.07;;;18.30;99.90;;;;;;4981208;28;20422;-96
2022/09/26 10:14:20;;;;;;;17.03;13.40;;;18.30;99.90;;;;;;4993935;28;20497;-96
2022/09/26 10:17:16;;;;;;;15.30;13.70;;;18.30;99.90;;;;;;5001440;28;20447;-94
2022/09/26 10:19:43;;;;;;;17.70;13.83;;;18.30;99.90;;;;;;4979996;28;20657;-94
2022/09/26 10:22:36;;;;;;;16.60;12.47;;;18.30;99.90;;;;;;4978740;28;20481;-96
2022/09/26 10:25:16;;;;;;;13.73;12.03;;;18.40;99.90;;;;;;4996057;28;20444;-96
2022/09/26 10:27:50;;;;;;;16.40;12.83;;;18.50;99.90;;;;;;4975028;28;20439;-95
2022/09/26 10:30:19;;;;;;;12.63;11.27;;;18.60;99.90;;;;;;4985900;28;20419;-94
2022/09/26 10:32:47;;;;;;;13.43;10.97;;;18.60;99.90;;;;;;5002101;28;20947;-96
2022/09/26 10:35:23;;;;;;;13.40;11.60;;;18.70;99.90;;;;;;4983876;28;20446;-96
2022/09/26 10:37:57;;;;;;;12.73;11.47;;;18.70;99.90;;;;;;4988778;28;20842;-95
2022/09/26 10:40:47;;;;;;;11.63;10.50;;;18.80;99.90;;;;;;4978542;28;20479;-96
2022/09/26 10:43:19;;;;;;;10.80;9.70;;;18.80;99.90;;;;;;4985701;28;20433;-95
2022/09/26 10:45:53;;;;;;;11.20;10.00;;;18.90;99.90;;;;;;4976368;28;20476;-93
2022/09/26 10:48:25;;;;;;;9.40;8.50;;;18.90;99.90;;;;;;4984818;28;20444;-96
2022/09/26 10:51:00;;;;;;;10.03;8.90;;;18.90;99.90;;;;;;4976686;28;20528;-96
2022/09/26 10:53:33;;;;;;;10.80;8.70;;;19.00;99.90;;;;;;4957520;28;20444;-94
2022/09/26 10:56:05;;;;;;;9.13;8.23;;;19.00;99.90;;;;;;4964859;28;20527;-93
2022/09/26 10:58:39;;;;;;;8.70;7.87;;;19.00;99.90;;;;;;4958567;28;20666;-96
2022/09/26 11:01:05;;;;;;;8.50;7.60;;;19.00;99.90;;;;;;4970684;28;20555;-94
2022/09/26 11:03:39;;;;;;;8.97;6.97;;;19.00;99.90;;;;;;4971991;28;20425;-94
2022/09/26 11:06:04;;;;;;;7.67;6.87;;;19.00;99.90;;;;;;4966938;28;20504;-94
2022/09/26 11:08:32;;;;;;;9.40;7.90;;;19.10;99.90;;;;;;4987245;28;20445;-91
2022/09/26 11:11:04;;;;;;;8.13;6.47;;;19.10;99.90;;;;;;4980469;28;20203;-96
2022/09/26 11:14:06;;;;;;;7.17;5.90;;;19.10;99.90;;;;;;4974409;28;20437;-93
2022/09/26 11:16:50;;;;;;;8.17;6.90;;;19.10;99.90;;;;;;4966624;28;20553;-94
2022/09/26 11:19:48;;;;;;;8.03;7.23;;;19.10;99.90;;;;;;4980615;28;20460;-96
2022/09/26 11:22:36;;;;;;;7.77;6.90;;;19.10;99.90;;;;;;4975928;28;20672;-96
2022/09/26 11:25:10;;;;;;;6.57;5.97;;;19.10;99.90;;;;;;4959015;28;20513;-94
2022/09/26 11:27:42;;;;;;;6.77;6.07;;;19.10;99.90;;;;;;4958873;28;20476;-95
2022/09/26 11:30:18;;;;;;;6.60;5.93;;;19.20;99.90;;;;;;4964635;28;20536;-94
2022/09/26 11:32:47;;;;;;;5.83;5.23;;;19.20;99.90;;;;;;4964602;28;20432;-94
2022/09/26 11:35:33;;;;;;;7.80;5.53;;;19.10;99.90;;;;;;4975371;28;20454;-94
2022/09/26 11:38:04;;;;;;;6.67;6.07;;;19.10;99.90;;;;;;4965727;28;20453;-95
2022/09/26 11:40:55;;;;;;;5.90;5.30;;;19.20;99.90;;;;;;4943060;28;20496;-94
2022/09/26 11:43:38;;;;;;;5.43;4.80;;;19.20;99.90;;;;;;4972896;28;20950;-96
2022/09/26 11:46:20;;;;;;;5.50;5.00;;;19.20;99.90;;;;;;4961964;28;20474;-96
2022/09/26 11:49:19;;;;;;;7.10;5.40;;;19.20;99.90;;;;;;4961392;28;20409;-94
2022/09/26 11:51:56;;;;;;;5.90;5.30;;;19.20;99.90;;;;;;4978530;28;20467;-93
2022/09/26 11:54:59;;;;;;;7.33;5.40;;;19.20;99.90;;;;;;4948754;28;20464;-96
2022/09/26 11:57:49;;;;;;;4.70;4.30;;;19.30;99.90;;;;;;4971679;28;20451;-96
2022/09/26 12:00:26;;;;;;;6.00;5.50;;;19.30;99.90;;;;;;4967652;28;21002;-96
2022/09/26 12:03:11;;;;;;;6.10;5.50;;;19.30;99.90;;;;;;4975434;28;20953;-94
2022/09/26 12:06:01;;;;;;;7.33;6.50;;;19.30;99.90;;;;;;4982882;28;20529;-93
2022/09/26 12:09:03;;;;;;;7.07;5.90;;;19.30;99.90;;;;;;4940674;28;20428;-94
2022/09/26 12:11:39;;;;;;;5.87;5.37;;;19.30;99.90;;;;;;4969401;28;20455;-96
2022/09/26 12:14:17;;;;;;;5.20;4.70;;;19.30;99.90;;;;;;4957174;28;20540;-96
2022/09/26 12:17:05;;;;;;;5.17;4.67;;;19.30;99.90;;;;;;4956810;28;20452;-94
2022/09/26 12:19:46;;;;;;;4.60;4.20;;;19.40;99.90;;;;;;4956122;28;20716;-96
2022/09/26 12:22:57;;;;;;;4.80;4.40;;;19.40;99.90;;;;;;4950439;28;20487;-94
2022/09/26 12:25:35;;;;;;;4.40;4.00;;;19.40;99.90;;;;;;4893808;29;20459;-94
2022/09/26 12:28:16;;;;;;;4.03;3.63;;;19.40;99.90;;;;;;4950521;28;20954;-96
2022/09/26 12:30:47;;;;;;;3.47;3.17;;;19.40;99.90;;;;;;4973010;28;20435;-94
2022/09/26 12:33:45;;;;;;;4.17;3.77;;;19.40;99.90;;;;;;4952355;28;20432;-95
2022/09/26 12:36:24;;;;;;;5.57;4.70;;;19.50;99.90;;;;;;4946461;29;20861;-96
2022/09/26 12:38:59;;;;;;;3.67;3.33;;;19.50;99.90;;;;;;4941949;28;20502;-96
2022/09/26 12:41:52;;;;;;;5.30;3.83;;;19.50;99.90;;;;;;4974509;28;20507;-94
2022/09/26 12:44:30;;;;;;;4.70;4.30;;;19.50;99.90;;;;;;4960113;28;20460;-95
2022/09/26 12:47:20;;;;;;;6.67;4.13;;;19.60;99.90;;;;;;4994760;28;20452;-96
2022/09/26 12:49:49;;;;;;;4.07;3.77;;;19.60;99.90;;;;;;4973506;28;20453;-93
2022/09/26 12:52:28;;;;;;;4.87;4.40;;;19.60;99.90;;;;;;4978320;28;20482;-96
2022/09/26 12:55:12;;;;;;;4.03;3.63;;;19.70;99.90;;;;;;4989778;28;20527;-96
2022/09/26 12:57:55;;;;;;;5.10;4.10;;;19.70;99.90;;;;;;4983079;28;20428;-96
2022/09/26 13:00:22;;;;;;;4.30;3.63;;;19.80;99.90;;;;;;4966262;28;20567;-93
2022/09/26 13:03:25;;;;;;;3.50;3.03;;;19.80;99.90;;;;;;4968668;28;20452;-95
2022/09/26 13:06:21;;;;;;;3.63;3.33;;;19.90;99.90;;;;;;4991727;28;20456;-96
2022/09/26 13:09:00;;;;;;;2.90;2.70;;;19.90;99.90;;;;;;4990824;28;20500;-96
2022/09/26 13:11:42;;;;;;;3.20;2.87;;;19.90;99.90;;;;;;4976486;28;20455;-95